Time;durP1;ratioP1;P1;durP2;ratioP2;P2;SDS_P1;SDS_P2;PMS_P1;PMS_P2;Temp;Humidity;BMP_temperature;BMP_pressure;BME280_temperature;BME280_humidity;BME280_pressure;Samples;Min_cycle;Max_cycle;Signal;HPM_P1;HPM_P2
2022/08/12 00:43:00;;;;;;;3.20;1.60;;;;;;;;;;5072156;28;20700;-70
2022/08/12 00:46:29;;;;;;;3.70;2.27;;;;;;;;;;5072732;28;20462;-70
2022/08/12 00:48:14;;;;;;;5.80;1.73;;;;;;;;;;5072855;28;20480;-70
2022/08/12 00:50:55;;;;;;;4.60;1.60;;;;;;;;;;5072036;28;20492;-69
2022/08/12 00:53:24;;;;;;;3.57;2.33;;;;;;;;;;5072165;28;20456;-70
2022/08/12 00:55:54;;;;;;;3.00;1.27;;;;;;;;;;5073094;28;20459;-70
2022/08/12 00:58:23;;;;;;;2.73;1.53;;;;;;;;;;5071144;28;20476;-70
2022/08/12 01:00:51;;;;;;;2.90;1.50;;;;;;;;;;5072124;28;20510;-69
2022/08/12 01:03:19;;;;;;;2.50;1.60;;;;;;;;;;5072389;28;20486;-70
2022/08/12 01:11:31;;;;;;;2.93;1.70;;;;;;;;;;5073598;28;20652;-70
2022/08/12 01:13:59;;;;;;;3.70;2.40;;;;;;;;;;5073038;28;20452;-69
2022/08/12 01:16:26;;;;;;;2.90;1.70;;;;;;;;;;5073587;28;20464;-69
2022/08/12 01:18:56;;;;;;;2.83;1.70;;;;;;;;;;5071619;28;20449;-69
2022/08/12 01:21:34;;;;;;;5.40;2.10;;;;;;;;;;5071398;28;20888;-69
2022/08/12 01:24:05;;;;;;;5.77;1.80;;;;;;;;;;5072265;28;20453;-70
2022/08/12 01:26:34;;;;;;;2.97;1.20;;;;;;;;;;5071942;28;20491;-70
2022/08/12 01:29:02;;;;;;;4.10;2.23;;;;;;;;;;5071455;28;20448;-69
2022/08/12 01:31:29;;;;;;;7.57;1.93;;;;;;;;;;5073180;28;20452;-69
2022/08/12 01:34:02;;;;;;;3.20;2.17;;;;;;;;;;5072486;28;20449;-70
2022/08/12 01:36:30;;;;;;;2.67;1.63;;;;;;;;;;5072494;28;20778;-69
2022/08/12 01:38:58;;;;;;;2.97;1.50;;;;;;;;;;5072153;28;20460;-69
2022/08/12 01:41:29;;;;;;;3.03;1.63;;;;;;;;;;5072272;28;20467;-68
2022/08/12 01:43:59;;;;;;;4.30;1.80;;;;;;;;;;5071715;28;20865;-70
2022/08/12 01:46:36;;;;;;;2.90;1.80;;;;;;;;;;5071619;28;20533;-70
2022/08/12 01:49:07;;;;;;;3.30;2.03;;;;;;;;;;5071203;28;20494;-70
2022/08/12 01:51:39;;;;;;;3.03;1.80;;;;;;;;;;5071363;28;20551;-70
2022/08/12 01:54:09;;;;;;;4.77;2.17;;;;;;;;;;5072617;28;20455;-69
2022/08/12 01:56:42;;;;;;;2.90;1.73;;;;;;;;;;5071629;28;20495;-69
2022/08/12 02:01:57;;;;;;;4.43;2.63;;;;;;;;;;5071566;28;20983;-70
2022/08/12 02:13:06;;;;;;;3.60;1.90;;;;;;;;;;5071031;28;20463;-70
2022/08/12 02:15:40;;;;;;;5.03;1.83;;;;;;;;;;5071950;28;20488;-69
2022/08/12 02:18:12;;;;;;;2.83;1.90;;;;;;;;;;5071421;28;20468;-70
2022/08/12 02:20:45;;;;;;;8.50;2.20;;;;;;;;;;5070988;28;20552;-70
2022/08/12 02:23:13;;;;;;;3.87;1.90;;;;;;;;;;5070792;28;20448;-70
2022/08/12 02:25:44;;;;;;;5.43;2.00;;;;;;;;;;5070682;28;20463;-70
2022/08/12 02:28:11;;;;;;;3.63;2.20;;;;;;;;;;5071848;28;20800;-69
2022/08/12 02:30:39;;;;;;;6.50;2.90;;;;;;;;;;5070914;28;20525;-70
2022/08/12 02:33:06;;;;;;;4.13;2.83;;;;;;;;;;5070938;28;20852;-70
2022/08/12 02:35:35;;;;;;;7.63;3.30;;;;;;;;;;5071244;28;20459;-70
2022/08/12 02:38:03;;;;;;;5.50;1.87;;;;;;;;;;5071123;28;20721;-70
2022/08/12 02:40:31;;;;;;;4.20;1.70;;;;;;;;;;5071494;28;20456;-70
2022/08/12 02:43:00;;;;;;;3.53;1.80;;;;;;;;;;5071294;28;20944;-69
2022/08/12 02:45:33;;;;;;;3.03;2.27;;;;;;;;;;5071275;28;20455;-69
2022/08/12 02:48:05;;;;;;;3.47;2.27;;;;;;;;;;5070725;28;20485;-69
2022/08/12 02:50:35;;;;;;;2.80;1.70;;;;;;;;;;5070501;28;20468;-70
2022/08/12 02:53:03;;;;;;;5.20;2.10;;;;;;;;;;5070064;28;20857;-69
2022/08/12 02:55:34;;;;;;;5.97;3.10;;;;;;;;;;5070778;28;20460;-69
2022/08/12 02:58:03;;;;;;;4.17;1.77;;;;;;;;;;5071423;28;20454;-69
2022/08/12 03:00:31;;;;;;;3.50;2.23;;;;;;;;;;5073979;28;20500;-69
2022/08/12 03:03:00;;;;;;;2.93;1.93;;;;;;;;;;5075043;28;20459;-69
2022/08/12 03:05:29;;;;;;;6.23;2.83;;;;;;;;;;5074744;28;20469;-69
2022/08/12 03:07:58;;;;;;;4.47;2.90;;;;;;;;;;5073606;28;20527;-70
2022/08/12 03:10:30;;;;;;;5.50;2.27;;;;;;;;;;5073680;28;20497;-69
2022/08/12 03:13:02;;;;;;;3.33;2.20;;;;;;;;;;5073610;28;20453;-69
2022/08/12 03:15:30;;;;;;;6.53;2.20;;;;;;;;;;5073998;28;20456;-69
2022/08/12 03:18:00;;;;;;;9.93;2.20;;;;;;;;;;5073149;28;20452;-70
2022/08/12 03:20:27;;;;;;;2.80;1.90;;;;;;;;;;5075300;28;20455;-70
2022/08/12 03:22:57;;;;;;;4.30;2.43;;;;;;;;;;5073912;28;20453;-70
2022/08/12 03:25:26;;;;;;;5.43;2.87;;;;;;;;;;5073951;28;20633;-69
2022/08/12 03:27:55;;;;;;;3.20;1.90;;;;;;;;;;5072267;28;20919;-69
2022/08/12 03:30:22;;;;;;;7.00;3.50;;;;;;;;;;5072412;28;20788;-69
2022/08/12 03:32:50;;;;;;;4.77;2.17;;;;;;;;;;5073747;28;20444;-69
2022/08/12 03:35:20;;;;;;;4.10;3.10;;;;;;;;;;5073183;28;20551;-69
2022/08/12 03:37:47;;;;;;;4.30;2.40;;;;;;;;;;5074444;28;20695;-70
2022/08/12 04:02:28;;;;;;;4.60;2.50;;;;;;;;;;5072750;28;20497;-70
2022/08/12 04:04:55;;;;;;;4.83;3.13;;;;;;;;;;5074010;28;20453;-70
2022/08/12 04:07:23;;;;;;;4.70;2.67;;;;;;;;;;5074169;28;20487;-70
2022/08/12 04:09:50;;;;;;;5.43;2.40;;;;;;;;;;5073602;28;20441;-70
2022/08/12 04:15:04;;;;;;;5.60;2.90;;;;;;;;;;5059517;28;20460;-70
2022/08/12 04:17:31;;;;;;;4.20;2.73;;;;;;;;;;5033041;28;20473;-71
2022/08/12 04:19:59;;;;;;;3.27;2.50;;;;;;;;;;5033435;28;20458;-69
2022/08/12 04:22:29;;;;;;;3.93;2.10;;;;;;;;;;5033650;28;20489;-69
2022/08/12 04:24:59;;;;;;;3.30;1.93;;;;;;;;;;5032807;28;20798;-69
2022/08/12 04:27:30;;;;;;;3.27;2.10;;;;;;;;;;5032700;28;20500;-68
2022/08/12 04:29:57;;;;;;;3.97;2.60;;;;;;;;;;5032523;28;20455;-69
2022/08/12 04:32:24;;;;;;;4.73;3.30;;;;;;;;;;5033293;28;20773;-69
2022/08/12 04:34:52;;;;;;;3.57;2.20;;;;;;;;;;5033039;28;20458;-69
2022/08/12 04:37:22;;;;;;;4.67;2.47;;;;;;;;;;5033071;28;20746;-69
2022/08/12 04:39:52;;;;;;;4.63;2.43;;;;;;;;;;5030580;28;20469;-69
2022/08/12 04:42:20;;;;;;;3.93;2.53;;;;;;;;;;5032510;28;20734;-69
2022/08/12 04:44:47;;;;;;;4.70;3.47;;;;;;;;;;5032922;28;20454;-69
2022/08/12 04:47:15;;;;;;;5.00;2.40;;;;;;;;;;5045862;28;20481;-69
2022/08/12 04:49:44;;;;;;;5.80;2.70;;;;;;;;;;5053438;28;20453;-69
2022/08/12 04:52:12;;;;;;;5.27;2.67;;;;;;;;;;5053974;28;20715;-69
2022/08/12 04:54:42;;;;;;;6.13;2.90;;;;;;;;;;5053531;28;20450;-69
2022/08/12 04:57:09;;;;;;;26.90;5.53;;;;;;;;;;5051853;28;20804;-69
2022/08/12 04:59:37;;;;;;;8.60;2.97;;;;;;;;;;5051816;28;20934;-69
2022/08/12 05:02:05;;;;;;;12.33;4.13;;;;;;;;;;5051396;28;20514;-69
2022/08/12 05:04:33;;;;;;;9.73;2.93;;;;;;;;;;5051501;28;20734;-69
2022/08/12 05:07:01;;;;;;;7.33;2.87;;;;;;;;;;5066811;28;20484;-69
2022/08/12 05:09:28;;;;;;;11.40;3.33;;;;;;;;;;5070966;28;20556;-69
2022/08/12 05:11:55;;;;;;;5.37;2.30;;;;;;;;;;5072912;28;20529;-69
2022/08/12 05:14:23;;;;;;;8.80;2.57;;;;;;;;;;5071799;28;20456;-68
2022/08/12 05:16:50;;;;;;;5.00;2.93;;;;;;;;;;5071668;28;20563;-69
2022/08/12 05:19:20;;;;;;;8.17;3.27;;;;;;;;;;5071051;28;20451;-69
2022/08/12 05:21:47;;;;;;;5.20;3.43;;;;;;;;;;5064345;28;20552;-69
2022/08/12 05:24:14;;;;;;;6.93;2.90;;;;;;;;;;5052710;28;20485;-69
2022/08/12 05:26:42;;;;;;;16.13;3.23;;;;;;;;;;5052590;28;20803;-69
2022/08/12 05:29:15;;;;;;;22.70;3.50;;;;;;;;;;5050118;28;20449;-70
2022/08/12 05:31:43;;;;;;;13.77;3.30;;;;;;;;;;5050477;28;20464;-70
2022/08/12 05:34:13;;;;;;;4.53;3.63;;;;;;;;;;5050871;28;20957;-70
2022/08/12 05:36:42;;;;;;;10.23;3.60;;;;;;;;;;5051050;28;20874;-70
2022/08/12 05:39:09;;;;;;;4.40;2.63;;;;;;;;;;5050596;28;20954;-70
2022/08/12 05:41:36;;;;;;;5.43;2.77;;;;;;;;;;5048979;28;20523;-70
2022/08/12 05:44:07;;;;;;;7.00;3.27;;;;;;;;;;5051604;28;20751;-71
2022/08/12 05:46:34;;;;;;;5.53;4.03;;;;;;;;;;5049428;28;20555;-70
2022/08/12 05:49:01;;;;;;;7.37;4.40;;;;;;;;;;5051777;28;20484;-71
2022/08/12 05:51:29;;;;;;;10.00;5.47;;;;;;;;;;5052511;28;20464;-70
2022/08/12 05:53:57;;;;;;;11.00;6.60;;;;;;;;;;5051204;28;20441;-70
2022/08/12 05:56:25;;;;;;;13.87;7.73;;;;;;;;;;5052219;28;20520;-70
2022/08/12 05:58:53;;;;;;;11.03;8.10;;;;;;;;;;5050897;28;20464;-70
2022/08/12 06:01:21;;;;;;;10.00;8.03;;;;;;;;;;5050527;28;20526;-71
2022/08/12 06:03:48;;;;;;;9.00;6.13;;;;;;;;;;5050963;28;20477;-70
2022/08/12 06:06:16;;;;;;;12.23;5.53;;;;;;;;;;5052225;28;20453;-71
2022/08/12 06:08:47;;;;;;;8.10;5.30;;;;;;;;;;5050000;28;20485;-70
2022/08/12 06:11:15;;;;;;;7.13;3.80;;;;;;;;;;5057002;28;20464;-70
2022/08/12 06:13:42;;;;;;;9.23;4.57;;;;;;;;;;5070902;28;20483;-70
2022/08/12 06:16:11;;;;;;;8.50;4.63;;;;;;;;;;5071161;28;20452;-70
2022/08/12 06:18:41;;;;;;;7.93;4.63;;;;;;;;;;5070666;28;20440;-70
2022/08/12 06:21:09;;;;;;;9.10;5.20;;;;;;;;;;5071276;28;20464;-70
2022/08/12 06:23:36;;;;;;;5.37;3.67;;;;;;;;;;5070699;28;21149;-70
2022/08/12 06:26:06;;;;;;;8.60;3.80;;;;;;;;;;5071670;28;20530;-70
2022/08/12 06:28:34;;;;;;;6.50;3.43;;;;;;;;;;5071795;28;20484;-70
2022/08/12 06:31:05;;;;;;;5.17;3.20;;;;;;;;;;5071023;28;20872;-70
2022/08/12 06:33:35;;;;;;;7.23;4.00;;;;;;;;;;5072375;28;20445;-70
2022/08/12 06:36:03;;;;;;;10.10;6.60;;;;;;;;;;5060441;28;20465;-70
2022/08/12 06:38:31;;;;;;;6.23;4.43;;;;;;;;;;5054115;28;20504;-70
2022/08/12 06:43:50;;;;;;;5.90;3.33;;;;;;;;;;5055047;28;20441;-69
2022/08/12 06:46:18;;;;;;;8.53;3.80;;;;;;;;;;5054468;28;20453;-69
2022/08/12 06:48:45;;;;;;;7.27;4.07;;;;;;;;;;5055133;28;20491;-70
2022/08/12 06:51:12;;;;;;;3.70;2.90;;;;;;;;;;5054487;28;20513;-70
2022/08/12 06:53:43;;;;;;;5.37;3.20;;;;;;;;;;5054077;28;20465;-70
2022/08/12 06:56:10;;;;;;;8.73;2.90;;;;;;;;;;5054738;28;20456;-69
2022/08/12 06:58:38;;;;;;;4.90;2.80;;;;;;;;;;5054351;28;20488;-69
2022/08/12 07:01:07;;;;;;;10.83;6.53;;;;;;;;;;5055301;28;20441;-69
2022/08/12 07:03:35;;;;;;;7.23;3.47;;;;;;;;;;5053643;28;20453;-70
2022/08/12 07:06:04;;;;;;;6.43;2.93;;;;;;;;;;5055077;28;20465;-69
2022/08/12 07:08:32;;;;;;;6.03;2.70;;;;;;;;;;5054091;28;20484;-69
2022/08/12 07:11:00;;;;;;;5.10;2.73;;;;;;;;;;5035828;28;20466;-70
2022/08/12 07:13:34;;;;;;;4.30;2.90;;;;;;;;;;5047679;28;20714;-70
2022/08/12 07:16:01;;;;;;;6.43;3.23;;;;;;;;;;5067390;28;20460;-69
2022/08/12 07:18:31;;;;;;;4.00;2.70;;;;;;;;;;5073700;28;20463;-69
2022/08/12 07:20:59;;;;;;;5.23;2.47;;;;;;;;;;5074690;28;20467;-69
2022/08/12 07:23:27;;;;;;;5.93;3.47;;;;;;;;;;5073616;28;20449;-69
2022/08/12 07:25:55;;;;;;;7.50;2.70;;;;;;;;;;5074479;28;20461;-69
2022/08/12 07:28:23;;;;;;;5.53;2.90;;;;;;;;;;5073138;28;20900;-69
2022/08/12 07:30:52;;;;;;;4.43;2.83;;;;;;;;;;5074362;28;20448;-69
2022/08/12 07:33:21;;;;;;;4.40;2.70;;;;;;;;;;5074133;28;21036;-70
2022/08/12 07:35:53;;;;;;;5.30;2.80;;;;;;;;;;5058830;28;20465;-70
2022/08/12 07:38:29;;;;;;;4.83;2.40;;;;;;;;;;5046713;28;20762;-70
2022/08/12 07:41:01;;;;;;;6.40;2.47;;;;;;;;;;5049361;28;20463;-71
2022/08/12 07:43:29;;;;;;;5.53;2.80;;;;;;;;;;5053682;28;20877;-71
2022/08/12 07:45:57;;;;;;;5.70;3.23;;;;;;;;;;5052938;28;20500;-70
2022/08/12 07:48:24;;;;;;;4.83;2.70;;;;;;;;;;5054126;28;20489;-70
2022/08/12 07:50:53;;;;;;;7.10;2.90;;;;;;;;;;5053101;28;20457;-71
2022/08/12 07:53:23;;;;;;;11.53;2.80;;;;;;;;;;5033487;28;20572;-70
2022/08/12 07:55:51;;;;;;;4.90;2.60;;;;;;;;;;5050503;28;20563;-71
2022/08/12 07:58:18;;;;;;;3.23;2.43;;;;;;;;;;5052327;28;20802;-70
2022/08/12 08:00:46;;;;;;;6.40;2.50;;;;;;;;;;5053841;28;20453;-70
2022/08/12 08:03:13;;;;;;;9.33;2.33;;;;;;;;;;5053324;28;20846;-70
2022/08/12 08:05:45;;;;;;;4.50;2.90;;;;;;;;;;5053595;28;20465;-71
2022/08/12 08:08:17;;;;;;;4.60;3.47;;;;;;;;;;5052511;28;20496;-71
2022/08/12 08:10:45;;;;;;;7.33;3.00;;;;;;;;;;5052226;28;20709;-70
2022/08/12 08:13:15;;;;;;;7.03;3.60;;;;;;;;;;5050636;28;20710;-70
2022/08/12 08:15:45;;;;;;;9.87;2.87;;;;;;;;;;5053178;28;20467;-70
2022/08/12 08:18:15;;;;;;;4.07;2.40;;;;;;;;;;5073460;28;20460;-71
2022/08/12 08:20:43;;;;;;;5.60;2.80;;;;;;;;;;5068959;28;20463;-70
2022/08/12 08:23:10;;;;;;;4.30;2.30;;;;;;;;;;5033256;28;20457;-70
2022/08/12 08:25:40;;;;;;;4.23;2.37;;;;;;;;;;5046804;28;20634;-69
2022/08/12 08:28:11;;;;;;;2.93;2.27;;;;;;;;;;5050844;28;20496;-71
2022/08/12 08:31:06;;;;;;;7.57;4.60;;;;;;;;;;5051789;28;20465;-71
2022/08/12 08:33:38;;;;;;;6.23;3.43;;;;;;;;;;5050690;28;20615;-69
2022/08/12 08:36:07;;;;;;;7.30;3.50;;;;;;;;;;5044852;28;20468;-70
2022/08/12 08:38:36;;;;;;;5.80;3.80;;;;;;;;;;5072993;28;20830;-71
2022/08/12 08:44:00;;;;;;;3.70;2.00;;;;;;;;;;5072977;28;20847;-70
2022/08/12 08:46:31;;;;;;;4.60;2.13;;;;;;;;;;5044093;28;20465;-70
2022/08/12 08:49:00;;;;;;;3.60;2.00;;;;;;;;;;5046756;28;20500;-70
2022/08/12 08:51:35;;;;;;;5.03;1.97;;;;;;;;;;5048222;28;20556;-71
2022/08/12 08:54:03;;;;;;;2.67;2.00;;;;;;;;;;5039272;28;20464;-71
2022/08/12 08:56:33;;;;;;;5.30;2.83;;;;;;;;;;5031069;28;20465;-70
2022/08/12 08:59:04;;;;;;;5.00;2.57;;;;;;;;;;5031566;28;20929;-69
2022/08/12 09:01:32;;;;;;;5.00;2.53;;;;;;;;;;5030945;28;20466;-70
2022/08/12 09:04:00;;;;;;;7.73;2.73;;;;;;;;;;5032158;28;20460;-70
2022/08/12 09:06:29;;;;;;;4.57;2.20;;;;;;;;;;5041496;28;20484;-71
2022/08/12 09:08:56;;;;;;;6.20;1.80;;;;;;;;;;5051332;28;20501;-71
2022/08/12 09:14:10;;;;;;;3.10;1.93;;;;;;;;;;5048399;28;20456;-70
2022/08/12 09:16:39;;;;;;;3.47;2.27;;;;;;;;;;5044467;28;20454;-71
2022/08/12 09:19:06;;;;;;;4.80;3.13;;;;;;;;;;5049396;28;20535;-69
2022/08/12 09:21:38;;;;;;;4.20;2.70;;;;;;;;;;5049734;28;20555;-70
2022/08/12 09:24:19;;;;;;;2.93;1.80;;;;;;;;;;5051227;28;20471;-70
2022/08/12 09:26:50;;;;;;;2.67;1.50;;;;;;;;;;5051752;28;20466;-69
2022/08/12 09:29:26;;;;;;;2.93;1.70;;;;;;;;;;5055457;28;20514;-69
2022/08/12 09:31:57;;;;;;;5.00;2.40;;;;;;;;;;5053163;28;20556;-70
2022/08/12 09:34:28;;;;;;;6.37;2.40;;;;;;;;;;5043605;28;20459;-70
2022/08/12 09:37:04;;;;;;;3.07;2.10;;;;;;;;;;5046711;28;21070;-70
2022/08/12 09:39:39;;;;;;;5.57;1.60;;;;;;;;;;5048059;28;20527;-70
2022/08/12 09:47:52;;;;;;;3.87;1.90;;;;;;;;;;5047538;28;20476;-71
2022/08/12 09:50:23;;;;;;;4.90;2.30;;;;;;;;;;5048638;28;20548;-72
2022/08/12 09:53:08;;;;;;;3.57;2.00;;;;;;;;;;5038667;28;20970;-70
2022/08/12 09:55:41;;;;;;;7.10;2.20;;;;;;;;;;5043378;28;20493;-71
2022/08/12 09:58:17;;;;;;;4.07;2.17;;;;;;;;;;5038252;28;20540;-71
2022/08/12 10:00:48;;;;;;;3.47;2.33;;;;;;;;;;5033898;28;20470;-69
2022/08/12 10:03:15;;;;;;;4.00;1.40;;;;;;;;;;5053155;28;20475;-71
2022/08/12 10:05:43;;;;;;;4.37;1.87;;;;;;;;;;5046657;28;20568;-71
2022/08/12 10:08:12;;;;;;;2.73;1.93;;;;;;;;;;5043657;28;20485;-71
2022/08/12 10:13:40;;;;;;;3.90;1.70;;;;;;;;;;5045973;28;20457;-70
2022/08/12 10:13:42;;;;;;;3.93;3.23;;;;;;;;;;5043579;28;20480;-69
2022/08/12 10:16:11;;;;;;;7.07;4.73;;;;;;;;;;5031803;28;21119;-70
2022/08/12 10:18:42;;;;;;;4.37;2.43;;;;;;;;;;5045761;28;20500;-69
2022/08/12 10:21:10;;;;;;;2.57;1.80;;;;;;;;;;5048542;28;20464;-70
2022/08/12 10:23:39;;;;;;;5.87;2.70;;;;;;;;;;5036269;28;20446;-72
2022/08/12 10:31:38;;;;;;;3.80;2.53;;;;;;;;;;5036712;28;20818;-72
2022/08/12 10:34:05;;;;;;;6.33;1.90;;;;;;;;;;5031698;28;20778;-70
2022/08/12 10:36:33;;;;;;;3.80;1.70;;;;;;;;;;5038793;28;20472;-73
2022/08/12 10:39:02;;;;;;;6.33;2.67;;;;;;;;;;5048367;28;20480;-70
2022/08/12 10:44:16;;;;;;;3.87;2.47;;;;;;;;;;5048912;28;20463;-72
2022/08/12 10:46:48;;;;;;;3.43;1.70;;;;;;;;;;5044671;28;20459;-72
2022/08/12 10:49:19;;;;;;;3.03;2.10;;;;;;;;;;5050780;28;20524;-73
2022/08/12 10:51:50;;;;;;;2.80;1.57;;;;;;;;;;5039752;28;20477;-72
2022/08/12 10:54:18;;;;;;;5.50;3.10;;;;;;;;;;5028938;28;20490;-71
2022/08/12 10:56:47;;;;;;;4.57;2.70;;;;;;;;;;5037155;28;21058;-74
2022/08/12 10:59:18;;;;;;;7.10;2.60;;;;;;;;;;5049299;28;20481;-73
2022/08/12 11:01:46;;;;;;;6.87;2.70;;;;;;;;;;5028740;28;20797;-72
2022/08/12 11:04:13;;;;;;;7.60;2.97;;;;;;;;;;5035625;28;20451;-72
2022/08/12 11:06:46;;;;;;;2.90;1.53;;;;;;;;;;5029979;28;20461;-72
2022/08/12 11:09:16;;;;;;;4.37;2.00;;;;;;;;;;5040599;28;20547;-73
2022/08/12 11:11:44;;;;;;;3.03;1.60;;;;;;;;;;5047372;28;20485;-69
2022/08/12 11:14:11;;;;;;;3.47;2.27;;;;;;;;;;5049640;28;20560;-71
2022/08/12 11:16:38;;;;;;;4.63;2.60;;;;;;;;;;5043813;28;20499;-72
2022/08/12 11:19:07;;;;;;;6.20;2.10;;;;;;;;;;5030903;28;20473;-72
2022/08/12 11:21:34;;;;;;;5.23;2.67;;;;;;;;;;5052987;28;20898;-72
2022/08/12 11:24:05;;;;;;;4.33;2.50;;;;;;;;;;5041792;28;20847;-73
2022/08/12 11:26:36;;;;;;;4.27;3.17;;;;;;;;;;5053124;28;20445;-70
2022/08/12 11:29:04;;;;;;;4.83;2.70;;;;;;;;;;5052533;28;20541;-70
2022/08/12 11:31:32;;;;;;;3.20;2.20;;;;;;;;;;5053619;28;20889;-71
2022/08/12 11:33:59;;;;;;;5.57;3.83;;;;;;;;;;5049329;28;20541;-71
2022/08/12 11:36:29;;;;;;;3.00;1.70;;;;;;;;;;5037560;28;20457;-70
2022/08/12 11:38:57;;;;;;;4.90;1.43;;;;;;;;;;5045062;28;20484;-73
2022/08/12 11:41:25;;;;;;;2.80;1.57;;;;;;;;;;5050863;28;20538;-72
2022/08/12 11:43:52;;;;;;;2.60;1.87;;;;;;;;;;5051878;28;20530;-71
2022/08/12 11:46:19;;;;;;;3.63;1.90;;;;;;;;;;5045926;28;20558;-72
2022/08/12 11:48:46;;;;;;;3.20;2.00;;;;;;;;;;5047370;28;20489;-73
2022/08/12 11:51:15;;;;;;;4.80;1.90;;;;;;;;;;5049323;28;20907;-73
2022/08/12 11:53:43;;;;;;;3.47;2.00;;;;;;;;;;5047715;28;20462;-71
2022/08/12 11:56:12;;;;;;;3.93;2.10;;;;;;;;;;5043483;28;20560;-71
2022/08/12 11:58:39;;;;;;;3.33;1.40;;;;;;;;;;5039883;28;20989;-70
2022/08/12 12:01:08;;;;;;;7.00;2.20;;;;;;;;;;5039187;28;20524;-70
2022/08/12 12:03:35;;;;;;;4.60;2.50;;;;;;;;;;5049902;28;20604;-70
2022/08/12 12:06:02;;;;;;;3.23;1.70;;;;;;;;;;5043434;28;20466;-70
2022/08/12 12:08:31;;;;;;;4.70;2.00;;;;;;;;;;5048272;28;20489;-73
2022/08/12 12:11:06;;;;;;;7.60;2.13;;;;;;;;;;5045368;28;20469;-72
2022/08/12 12:13:38;;;;;;;3.43;2.33;;;;;;;;;;5046723;28;20457;-71
2022/08/12 12:16:06;;;;;;;3.87;2.37;;;;;;;;;;5045178;28;20465;-71
2022/08/12 12:18:33;;;;;;;2.73;1.27;;;;;;;;;;5045071;28;21051;-70
2022/08/12 12:21:02;;;;;;;4.87;1.90;;;;;;;;;;5043703;28;20627;-70
2022/08/12 12:23:29;;;;;;;4.57;2.70;;;;;;;;;;5057857;28;20453;-70
2022/08/12 12:25:57;;;;;;;3.77;1.90;;;;;;;;;;5038752;28;20469;-70
2022/08/12 12:28:56;;;;;;;2.47;1.40;;;;;;;;;;5047312;28;20935;-70
2022/08/12 12:31:24;;;;;;;5.63;2.97;;;;;;;;;;5044446;28;20437;-72
2022/08/12 12:33:51;;;;;;;3.20;1.63;;;;;;;;;;5047275;28;20521;-70
2022/08/12 12:36:21;;;;;;;7.10;3.90;;;;;;;;;;5046421;28;20468;-70
2022/08/12 12:38:49;;;;;;;3.30;1.77;;;;;;;;;;5057509;28;20497;-70
2022/08/12 12:41:17;;;;;;;5.10;1.97;;;;;;;;;;5047148;28;20460;-70
2022/08/12 12:43:44;;;;;;;3.30;1.60;;;;;;;;;;5052970;28;20758;-70
2022/08/12 12:46:14;;;;;;;5.77;1.70;;;;;;;;;;5056127;28;20449;-70
2022/08/12 12:48:42;;;;;;;4.20;1.80;;;;;;;;;;5049864;28;20520;-69
2022/08/12 12:51:17;;;;;;;2.83;1.93;;;;;;;;;;5050746;28;20469;-71
2022/08/12 12:53:48;;;;;;;2.93;1.80;;;;;;;;;;5052061;28;21041;-69
2022/08/12 12:56:16;;;;;;;5.43;2.60;;;;;;;;;;5053608;28;20462;-71
2022/08/12 12:58:51;;;;;;;4.67;2.97;;;;;;;;;;5045956;28;20480;-71
2022/08/12 13:01:24;;;;;;;7.87;2.73;;;;;;;;;;5051383;28;20455;-70
2022/08/12 13:03:53;;;;;;;4.20;2.40;;;;;;;;;;5047608;28;20469;-71
2022/08/12 13:06:24;;;;;;;4.13;1.30;;;;;;;;;;5047512;28;20462;-69
2022/08/12 13:08:53;;;;;;;4.90;2.13;;;;;;;;;;5057202;28;20809;-71
2022/08/12 13:11:26;;;;;;;3.87;1.90;;;;;;;;;;5044647;28;20469;-71
2022/08/12 13:14:05;;;;;;;3.03;1.70;;;;;;;;;;5046538;28;20536;-71
2022/08/12 13:16:33;;;;;;;4.90;2.20;;;;;;;;;;5045442;28;21180;-70
2022/08/12 13:19:08;;;;;;;3.90;2.40;;;;;;;;;;5049727;28;20481;-71
2022/08/12 13:22:14;;;;;;;3.70;1.90;;;;;;;;;;5054327;28;20453;-70
2022/08/12 13:24:23;;;;;;;2.77;1.70;;;;;;;;;;5047056;28;21073;-69
2022/08/12 13:26:52;;;;;;;4.20;1.67;;;;;;;;;;5051219;28;20458;-69
2022/08/12 13:29:20;;;;;;;3.17;1.80;;;;;;;;;;5056693;28;20492;-70
2022/08/12 13:31:54;;;;;;;3.97;1.90;;;;;;;;;;5054247;28;20518;-70
2022/08/12 13:34:23;;;;;;;3.30;1.80;;;;;;;;;;5054392;28;20520;-69
2022/08/12 13:36:50;;;;;;;2.57;1.50;;;;;;;;;;5035675;28;20453;-69
2022/08/12 13:39:20;;;;;;;3.70;1.57;;;;;;;;;;5067847;28;21251;-69
2022/08/12 13:41:47;;;;;;;3.47;1.90;;;;;;;;;;5053054;28;20529;-70
2022/08/12 13:44:14;;;;;;;3.50;1.50;;;;;;;;;;5070157;28;20730;-70
2022/08/12 13:46:42;;;;;;;2.73;1.60;;;;;;;;;;5052584;28;20457;-70
2022/08/12 13:49:12;;;;;;;3.10;1.90;;;;;;;;;;5043639;28;20886;-70
2022/08/12 13:51:41;;;;;;;3.13;1.60;;;;;;;;;;5047262;28;20835;-70
2022/08/12 13:54:12;;;;;;;4.10;1.60;;;;;;;;;;5039783;28;20776;-69
2022/08/12 13:56:40;;;;;;;4.67;1.80;;;;;;;;;;5047899;28;20453;-70
2022/08/12 13:59:07;;;;;;;3.70;1.50;;;;;;;;;;5042397;28;20452;-69
2022/08/12 14:01:36;;;;;;;3.10;1.83;;;;;;;;;;5061641;28;20710;-70
2022/08/12 14:04:04;;;;;;;2.93;1.37;;;;;;;;;;5053809;28;20869;-70
2022/08/12 14:06:34;;;;;;;3.50;1.47;;;;;;;;;;5051750;28;20742;-69
2022/08/12 14:09:02;;;;;;;7.30;1.63;;;;;;;;;;5047353;28;20485;-69
2022/08/12 14:11:30;;;;;;;2.63;1.53;;;;;;;;;;5052842;28;20529;-69
2022/08/12 14:14:00;;;;;;;5.07;1.63;;;;;;;;;;5047245;28;20548;-70
2022/08/12 14:16:28;;;;;;;3.80;1.57;;;;;;;;;;5044892;28;20465;-69
2022/08/12 14:18:57;;;;;;;4.17;1.50;;;;;;;;;;5047743;28;20487;-70
2022/08/12 14:21:28;;;;;;;4.67;1.90;;;;;;;;;;5039005;28;20469;-70
2022/08/12 14:23:57;;;;;;;3.57;1.73;;;;;;;;;;5055761;28;20445;-69
2022/08/12 14:26:25;;;;;;;3.03;1.47;;;;;;;;;;5049699;28;20450;-69
2022/08/12 14:28:53;;;;;;;2.83;1.80;;;;;;;;;;5052010;28;20479;-70
2022/08/12 14:31:21;;;;;;;2.90;1.43;;;;;;;;;;5042036;28;20453;-69
2022/08/12 14:33:58;;;;;;;2.37;1.20;;;;;;;;;;5049942;28;20515;-70
2022/08/12 14:36:28;;;;;;;3.43;1.30;;;;;;;;;;5046707;28;20479;-71
2022/08/12 14:39:01;;;;;;;2.07;1.10;;;;;;;;;;5035969;28;20624;-70
2022/08/12 14:41:32;;;;;;;8.80;2.13;;;;;;;;;;5044046;28;20471;-70
2022/08/12 14:43:59;;;;;;;3.77;1.67;;;;;;;;;;5046924;28;20796;-70
2022/08/12 14:46:29;;;;;;;3.53;1.57;;;;;;;;;;5041508;28;20934;-70
2022/08/12 14:48:57;;;;;;;4.50;1.70;;;;;;;;;;5060367;28;20883;-70
2022/08/12 14:51:27;;;;;;;2.67;1.30;;;;;;;;;;5065114;28;20457;-70
2022/08/12 14:54:00;;;;;;;2.27;1.37;;;;;;;;;;5044608;28;20460;-70
2022/08/12 14:56:29;;;;;;;2.93;1.50;;;;;;;;;;5061522;28;20517;-70
2022/08/12 15:01:58;;;;;;;4.60;1.93;;;;;;;;;;4998459;28;20439;-71
2022/08/12 15:04:27;;;;;;;4.00;2.10;;;;;;;;;;5021884;28;20608;-71
2022/08/12 15:06:57;;;;;;;3.60;1.93;;;;;;;;;;5034795;28;20790;-73
2022/08/12 15:09:24;;;;;;;5.00;1.60;;;;;;;;;;5043736;28;20487;-71
2022/08/12 15:11:52;;;;;;;2.90;1.60;;;;;;;;;;5067982;28;20453;-70
2022/08/12 15:14:19;;;;;;;3.50;1.80;;;;;;;;;;5069407;28;21080;-71
2022/08/12 15:16:48;;;;;;;2.70;1.77;;;;;;;;;;5058031;28;20750;-71
2022/08/12 15:19:15;;;;;;;4.93;2.20;;;;;;;;;;5056278;28;20453;-70
2022/08/12 15:21:42;;;;;;;3.10;1.70;;;;;;;;;;5054060;28;20462;-73
2022/08/12 15:24:14;;;;;;;4.90;1.80;;;;;;;;;;5056732;28;20472;-71
2022/08/12 15:26:41;;;;;;;3.07;1.20;;;;;;;;;;5061636;28;20456;-73
2022/08/12 15:29:09;;;;;;;5.57;1.80;;;;;;;;;;5072011;28;20491;-73
2022/08/12 15:31:36;;;;;;;3.10;1.80;;;;;;;;;;5053218;28;20763;-72
2022/08/12 15:34:06;;;;;;;3.80;1.70;;;;;;;;;;5053068;28;20503;-72
2022/08/12 15:36:34;;;;;;;5.90;3.37;;;;;;;;;;5060812;28;20453;-73
2022/08/12 15:39:01;;;;;;;2.53;1.70;;;;;;;;;;5072390;28;20564;-72
2022/08/12 15:41:29;;;;;;;3.40;1.37;;;;;;;;;;5071652;28;20463;-72
2022/08/12 15:43:56;;;;;;;3.23;1.60;;;;;;;;;;5073198;28;20448;-73
2022/08/12 15:46:31;;;;;;;3.50;1.60;;;;;;;;;;5057624;28;20523;-72
2022/08/12 15:48:58;;;;;;;2.97;1.63;;;;;;;;;;5052993;28;20488;-72
2022/08/12 15:51:29;;;;;;;3.60;2.10;;;;;;;;;;5040114;28;20461;-73
2022/08/12 15:54:06;;;;;;;3.27;2.00;;;;;;;;;;5051805;28;20441;-73
2022/08/12 15:56:40;;;;;;;4.53;3.83;;;;;;;;;;5048731;28;20449;-71
2022/08/12 15:59:09;;;;;;;3.93;1.60;;;;;;;;;;5051573;28;20522;-72
2022/08/12 16:01:37;;;;;;;3.13;1.77;;;;;;;;;;5052717;28;20464;-72
2022/08/12 16:04:09;;;;;;;5.03;1.60;;;;;;;;;;5053196;28;20468;-72
2022/08/12 16:06:36;;;;;;;5.37;2.40;;;;;;;;;;5034492;28;20461;-72
2022/08/12 16:09:04;;;;;;;2.17;1.30;;;;;;;;;;5051492;28;20882;-72
2022/08/12 16:11:39;;;;;;;3.53;1.70;;;;;;;;;;5037753;28;20918;-73
2022/08/12 16:14:14;;;;;;;2.20;1.20;;;;;;;;;;5032475;28;20465;-73
2022/08/12 16:16:42;;;;;;;5.20;1.20;;;;;;;;;;5031486;28;20519;-72
2022/08/12 16:19:09;;;;;;;2.20;1.10;;;;;;;;;;5037727;28;20487;-71
2022/08/12 16:21:37;;;;;;;3.70;2.37;;;;;;;;;;5052330;28;20441;-73
2022/08/12 16:24:07;;;;;;;11.43;3.60;;;;;;;;;;5048004;28;20761;-72
2022/08/12 16:26:38;;;;;;;4.73;1.90;;;;;;;;;;5031381;28;20474;-72
2022/08/12 16:29:06;;;;;;;3.50;1.63;;;;;;;;;;5032299;28;20770;-73
2022/08/12 16:31:39;;;;;;;5.20;2.50;;;;;;;;;;5039154;28;20445;-73
2022/08/12 16:34:10;;;;;;;5.40;1.93;;;;;;;;;;5050266;28;20738;-73
2022/08/12 16:36:39;;;;;;;4.27;1.73;;;;;;;;;;5050744;28;20468;-73
2022/08/12 16:39:06;;;;;;;7.23;3.50;;;;;;;;;;5050617;28;20450;-73
2022/08/12 16:41:34;;;;;;;4.80;1.90;;;;;;;;;;5050309;28;20501;-73
2022/08/12 16:44:05;;;;;;;4.83;4.30;;;;;;;;;;5038061;28;20499;-73
2022/08/12 16:46:35;;;;;;;6.47;3.90;;;;;;;;;;5047194;28;20500;-73